createdAt,value
2024-02-08T00:01:11.511Z,77.14
2024-02-08T00:03:38.982Z,77.04
2024-02-08T00:06:06.164Z,76.99
2024-02-08T00:08:36.131Z,77.39
2024-02-08T00:11:07.640Z,77.30
2024-02-08T00:13:35.626Z,77.64
2024-02-08T00:16:02.903Z,78.03
2024-02-08T00:18:29.896Z,77.82
2024-02-08T00:20:57.212Z,77.42
2024-02-08T00:23:24.197Z,77.36
2024-02-08T00:25:51.646Z,77.00
2024-02-08T00:28:18.693Z,77.23
2024-02-08T00:30:46.536Z,77.11
2024-02-08T00:33:13.548Z,76.97
2024-02-08T00:35:40.778Z,76.73
2024-02-08T00:38:08.213Z,76.86
2024-02-08T00:40:35.081Z,77.30
2024-02-08T00:43:07.666Z,77.38
2024-02-08T00:45:35.312Z,77.05
2024-02-08T00:48:05.240Z,77.14
2024-02-08T00:50:32.118Z,77.01
2024-02-08T00:52:59.668Z,77.43
2024-02-08T00:55:30.979Z,77.57
2024-02-08T00:57:57.976Z,77.25
2024-02-08T01:00:24.832Z,77.67
2024-02-08T01:02:51.605Z,77.45
2024-02-08T01:05:21.945Z,77.36
2024-02-08T01:07:48.735Z,77.33
2024-02-08T01:10:15.679Z,77.26
2024-02-08T01:12:44.058Z,77.60
2024-02-08T01:15:15.317Z,77.64
2024-02-08T01:17:43.072Z,77.48
2024-02-08T01:20:11.345Z,77.68
2024-02-08T01:22:38.280Z,77.97
2024-02-08T01:25:05.621Z,78.12
2024-02-08T01:27:32.765Z,78.10
2024-02-08T01:30:08.168Z,77.81
2024-02-08T01:32:35.126Z,77.68
2024-02-08T01:35:01.862Z,77.26
2024-02-08T01:37:29.332Z,76.95
2024-02-08T01:39:57.668Z,77.02
2024-02-08T01:42:24.518Z,76.98
2024-02-08T01:45:02.517Z,77.22
2024-02-08T01:47:29.365Z,77.52
2024-02-08T01:49:56.877Z,77.76
2024-02-08T01:52:24.662Z,77.39
2024-02-08T01:54:51.587Z,77.20
2024-02-08T01:57:18.660Z,77.46
2024-02-08T02:00:22.918Z,77.53
2024-02-08T02:06:37.997Z,77.69
2024-02-08T02:10:24.259Z,77.63
2024-02-08T02:13:50.725Z,77.80
2024-02-08T02:17:29.306Z,77.76
2024-02-08T02:21:16.301Z,77.31
2024-02-08T02:25:02.512Z,77.10
2024-02-08T02:28:50.267Z,77.34
2024-02-08T02:32:36.922Z,77.12
2024-02-08T02:36:23.416Z,77.62
2024-02-08T02:40:09.856Z,77.41
2024-02-08T02:43:59.229Z,77.56
2024-02-08T02:47:47.666Z,77.87
2024-02-08T02:51:34.579Z,77.42
2024-02-08T02:55:21.315Z,77.60
2024-02-08T02:59:08.346Z,77.89
2024-02-08T03:02:55.214Z,77.52
2024-02-08T03:06:43.003Z,77.52
2024-02-08T03:14:15.124Z,77.31
2024-02-08T03:18:02.319Z,77.50
2024-02-08T03:21:49.225Z,77.86
2024-02-08T03:25:38.948Z,77.34
2024-02-08T03:29:05.732Z,77.48
2024-02-08T03:32:53.690Z,77.76
2024-02-08T03:36:40.622Z,77.13
2024-02-08T03:40:27.821Z,76.98
2024-02-08T03:43:54.754Z,76.83
2024-02-08T03:47:41.097Z,76.79
2024-02-08T03:51:27.498Z,76.79
2024-02-08T03:55:14.820Z,76.87
2024-02-08T03:59:06.431Z,76.76
2024-02-08T04:02:58.990Z,76.48
2024-02-08T04:05:47.917Z,76.36
2024-02-08T04:08:33.622Z,76.28
2024-02-08T04:11:00.304Z,76.15
2024-02-08T04:13:45.723Z,76.17
2024-02-08T04:16:31.075Z,75.92
2024-02-08T04:19:17.852Z,75.99
2024-02-08T04:22:03.184Z,75.86
2024-02-08T04:24:48.196Z,75.72
2024-02-08T04:27:32.886Z,75.78
2024-02-08T04:30:17.744Z,75.64
2024-02-08T04:33:06.181Z,75.52
2024-02-08T04:35:51.177Z,75.38
2024-02-08T04:38:36.079Z,75.23
2024-02-08T04:41:21.941Z,75.08
2024-02-08T04:44:07.653Z,75.03
2024-02-08T04:46:52.994Z,75.05
2024-02-08T04:49:37.731Z,75.00
2024-02-08T04:52:23.097Z,75.24
2024-02-08T04:54:49.675Z,75.30
2024-02-08T04:57:16.294Z,75.37
2024-02-08T04:59:45.500Z,75.40
2024-02-08T05:02:12.743Z,75.49
2024-02-08T05:04:39.236Z,75.50
2024-02-08T05:07:07.295Z,75.49
2024-02-08T05:09:34.101Z,75.48
2024-02-08T05:12:03.110Z,75.43
2024-02-08T05:14:29.672Z,75.42
2024-02-08T05:16:56.775Z,75.49
2024-02-08T05:19:24.535Z,75.53
2024-02-08T05:21:51.787Z,75.50
2024-02-08T05:25:24.502Z,75.46
2024-02-08T05:29:08.584Z,75.40
2024-02-08T05:32:59.376Z,75.41
2024-02-08T05:36:49.055Z,75.30
2024-02-08T05:40:15.674Z,75.28
2024-02-08T05:44:02.700Z,75.24
2024-02-08T05:47:52.490Z,75.20
2024-02-08T05:51:18.889Z,75.20
2024-02-08T06:11:07.319Z,75.42
2024-02-08T06:14:54.596Z,75.49
2024-02-08T06:18:47.336Z,75.48
2024-02-08T06:22:42.954Z,75.56
2024-02-08T06:26:33.984Z,75.60
2024-02-08T06:34:06.753Z,75.44
2024-02-08T06:37:56.298Z,75.40
2024-02-08T06:41:47.392Z,75.45
2024-02-08T06:45:47.222Z,75.51
2024-02-08T06:49:32.459Z,75.76
2024-02-08T06:53:20.673Z,75.84
2024-02-08T06:57:06.781Z,75.93
2024-02-08T07:00:54.766Z,76.06
2024-02-08T07:04:39.892Z,76.03
2024-02-08T07:08:25.476Z,76.08
2024-02-08T07:12:10.595Z,75.81
2024-02-08T07:15:55.760Z,75.68
2024-02-08T07:19:40.646Z,75.48
2024-02-08T07:23:26.105Z,75.49
2024-02-08T07:27:17.598Z,75.35
2024-02-08T07:31:04.423Z,75.27
2024-02-08T07:34:50.080Z,75.28
2024-02-08T07:38:39.970Z,75.61
2024-02-08T07:42:28.761Z,75.80
2024-02-08T07:46:39.240Z,76.07
2024-02-08T07:50:31.920Z,76.40
2024-02-08T07:54:30.917Z,76.06
2024-02-08T07:58:21.680Z,75.77
2024-02-08T08:02:19.290Z,75.34
2024-02-08T08:06:06.594Z,75.25
2024-02-08T08:09:56.864Z,75.19
2024-02-08T08:13:45.752Z,75.11
2024-02-08T08:17:38.450Z,74.90
2024-02-08T08:21:25.565Z,74.64
2024-02-08T08:25:21.951Z,74.80
2024-02-08T08:29:16.841Z,74.62
2024-02-08T08:33:03.824Z,74.40
2024-02-08T08:36:50.969Z,73.70
2024-02-08T08:40:46.996Z,73.89
2024-02-08T08:48:23.759Z,74.03
2024-02-08T08:52:12.144Z,74.19
2024-02-08T08:55:59.743Z,74.13
2024-02-08T08:59:47.305Z,73.70
2024-02-08T09:03:52.753Z,73.66
2024-02-08T09:07:42.514Z,73.41
2024-02-08T09:11:36.316Z,73.34
2024-02-08T09:15:44.890Z,73.40
2024-02-08T09:19:35.098Z,73.47
2024-02-08T09:23:29.045Z,73.51
2024-02-08T09:27:16.892Z,73.07
2024-02-08T09:31:04.161Z,73.08
2024-02-08T09:35:01.381Z,72.91
2024-02-08T09:38:48.396Z,72.89
2024-02-08T09:46:42.958Z,73.13
2024-02-08T09:50:34.370Z,73.13
2024-02-08T09:54:36.446Z,72.95
2024-02-08T10:02:29.568Z,72.97
2024-02-08T10:06:16.484Z,72.91
2024-02-08T10:10:03.834Z,73.05
2024-02-08T10:13:58.557Z,72.92
2024-02-08T10:21:21.291Z,72.81
2024-02-08T10:25:06.589Z,72.92
2024-02-08T10:29:01.038Z,73.04
2024-02-08T10:32:49.442Z,72.98
2024-02-08T10:36:42.387Z,73.10
2024-02-08T10:40:50.944Z,73.04
2024-02-08T10:44:46.038Z,72.86
2024-02-08T10:48:46.873Z,72.90
2024-02-08T10:52:35.707Z,72.80
2024-02-08T10:56:23.538Z,72.78
2024-02-08T11:00:11.898Z,72.63
2024-02-08T11:04:10.974Z,72.46
2024-02-08T11:07:58.176Z,72.55
2024-02-08T11:11:48.288Z,72.43
2024-02-08T11:15:35.689Z,72.27
2024-02-08T11:19:23.387Z,72.22
2024-02-08T11:23:13.226Z,71.98
2024-02-08T11:27:10.216Z,71.85
2024-02-08T11:30:59.940Z,72.03
2024-02-08T11:38:19.012Z,71.55
2024-02-08T11:42:09.475Z,71.47
2024-02-08T11:45:59.742Z,71.71
2024-02-08T11:49:54.682Z,71.73
2024-02-08T11:53:46.799Z,71.71
2024-02-08T11:57:36.178Z,71.81
2024-02-08T12:01:36.329Z,71.77
2024-02-08T12:05:26.806Z,71.80
2024-02-08T12:09:38.306Z,71.95
2024-02-08T12:13:38.024Z,71.63
2024-02-08T12:17:28.492Z,71.45
2024-02-08T12:25:06.693Z,71.54
2024-02-08T12:29:00.597Z,71.48
2024-02-08T12:32:52.693Z,71.48
2024-02-08T12:36:51.408Z,71.36
2024-02-08T12:40:40.777Z,71.49
2024-02-08T12:44:30.766Z,71.40
2024-02-08T12:48:24.361Z,71.45
2024-02-08T12:56:20.863Z,71.16
2024-02-08T13:00:15.675Z,71.31
2024-02-08T13:04:09.049Z,71.48
2024-02-08T13:14:57.438Z,71.82
2024-02-08T13:18:45.892Z,72.05
2024-02-08T13:22:35.208Z,72.33
2024-02-08T13:26:36.866Z,72.29
2024-02-08T13:30:24.690Z,72.35
2024-02-08T13:34:12.364Z,72.60
2024-02-08T13:37:59.690Z,72.61
2024-02-08T13:41:47.643Z,72.49
2024-02-08T13:45:38.803Z,72.56
2024-02-08T13:53:13.320Z,72.79
2024-02-08T13:57:03.692Z,72.95
2024-02-08T14:00:56.963Z,73.67
2024-02-08T14:04:52.947Z,73.60
2024-02-08T14:08:42.073Z,73.20
2024-02-08T14:12:32.404Z,73.05
2024-02-08T14:16:19.742Z,73.24
2024-02-08T14:20:08.511Z,73.59
2024-02-08T14:23:58.036Z,73.60
2024-02-08T14:27:43.669Z,73.53
2024-02-08T14:31:33.913Z,73.29
2024-02-08T14:35:19.413Z,73.98
2024-02-08T14:39:07.594Z,73.78
2024-02-08T14:42:57.636Z,73.57
2024-02-08T14:46:44.742Z,74.13
2024-02-08T14:50:37.405Z,74.21
2024-02-08T14:54:25.577Z,74.52
2024-02-08T14:58:12.702Z,74.35
2024-02-08T15:01:59.658Z,74.47
2024-02-08T15:05:46.839Z,74.73
2024-02-08T15:09:32.385Z,74.49
2024-02-08T15:13:22.324Z,74.36
2024-02-08T15:17:10.447Z,74.28
2024-02-08T15:20:58.176Z,74.06
2024-02-08T15:24:44.831Z,74.05
2024-02-08T15:28:47.892Z,74.22
2024-02-08T15:32:40.585Z,74.07
2024-02-08T15:40:15.615Z,74.24
2024-02-08T15:44:05.437Z,74.64
2024-02-08T15:47:52.828Z,75.24
2024-02-08T15:51:39.905Z,75.36
2024-02-08T15:55:27.416Z,74.89
2024-02-08T16:03:08.883Z,74.78
2024-02-08T16:07:02.317Z,74.82
2024-02-08T16:10:52.180Z,75.35
2024-02-08T16:14:39.467Z,75.21
2024-02-08T16:18:27.613Z,75.37
2024-02-08T16:22:13.946Z,75.51
2024-02-08T16:26:07.245Z,75.10
2024-02-08T16:29:57.137Z,74.52
2024-02-08T16:33:52.783Z,74.93
2024-02-08T16:37:51.773Z,74.91
2024-02-08T16:41:39.411Z,75.10
2024-02-08T16:45:26.701Z,75.34
2024-02-08T16:49:16.693Z,75.83
2024-02-08T16:53:04.018Z,76.31
2024-02-08T16:56:51.115Z,76.44
2024-02-08T17:00:50.310Z,76.19
2024-02-08T17:04:37.049Z,75.70
2024-02-08T17:08:24.041Z,76.28
2024-02-08T17:12:10.692Z,76.06
2024-02-08T17:16:01.417Z,75.73
2024-02-08T17:19:51.074Z,76.17
2024-02-08T17:23:38.156Z,75.93
2024-02-08T17:27:24.907Z,76.29
2024-02-08T17:31:21.114Z,76.63
2024-02-08T17:35:08.351Z,76.41
2024-02-08T17:38:55.052Z,76.14
2024-02-08T17:42:42.207Z,75.95
2024-02-08T17:46:30.717Z,75.62
2024-02-08T17:50:20.583Z,76.30
2024-02-08T17:54:08.075Z,75.97
2024-02-08T17:57:55.296Z,76.52
2024-02-08T18:01:42.374Z,76.44
2024-02-08T18:05:32.571Z,76.51
2024-02-08T18:09:21.263Z,76.59
2024-02-08T18:13:08.598Z,76.62
2024-02-08T18:16:58.909Z,76.09
2024-02-08T18:20:49.035Z,76.44
2024-02-08T18:24:38.571Z,77.08
2024-02-08T18:28:28.599Z,76.27
2024-02-08T18:32:15.959Z,76.65
2024-02-08T18:36:03.175Z,76.93
2024-02-08T18:39:52.915Z,76.33
2024-02-08T18:43:39.998Z,76.60
2024-02-08T18:47:26.956Z,76.67
2024-02-08T18:51:13.838Z,76.80
2024-02-08T18:55:00.966Z,77.23
2024-02-08T18:58:50.876Z,77.28
2024-02-08T19:02:48.296Z,77.50
2024-02-08T19:06:38.369Z,77.60
2024-02-08T19:10:31.145Z,77.43
2024-02-08T19:14:18.565Z,77.30
2024-02-08T19:18:07.971Z,77.33
2024-02-08T19:22:10.224Z,76.78
2024-02-08T19:25:57.322Z,77.11
2024-02-08T19:29:45.638Z,77.09
2024-02-08T19:33:32.400Z,77.04
2024-02-08T19:37:22.392Z,77.27
2024-02-08T19:41:09.558Z,76.44
2024-02-08T19:45:00.437Z,76.93
2024-02-08T19:48:48.513Z,77.54
2024-02-08T19:52:36.965Z,77.62
2024-02-08T19:56:26.615Z,77.43
2024-02-08T19:59:58.895Z,77.72
2024-02-08T20:03:46.270Z,77.83
2024-02-08T20:07:34.636Z,77.51
2024-02-08T20:11:21.819Z,77.45
2024-02-08T20:15:09.250Z,77.57
2024-02-08T20:18:57.846Z,77.65
2024-02-08T20:22:45.131Z,77.71
2024-02-08T20:26:33.396Z,77.60
2024-02-08T20:30:20.775Z,76.78
2024-02-08T20:34:11.250Z,77.33
2024-02-08T20:37:58.416Z,77.27
2024-02-08T20:41:46.999Z,77.27
2024-02-08T20:45:34.313Z,77.15
2024-02-08T20:49:24.070Z,77.46
2024-02-08T20:52:51.395Z,76.95
2024-02-08T20:56:44.278Z,77.22
2024-02-08T21:00:36.936Z,76.91
2024-02-08T21:04:24.244Z,77.26
2024-02-08T21:08:12.640Z,77.04
2024-02-08T21:12:11.968Z,77.26
2024-02-08T21:16:01.794Z,77.35
2024-02-08T21:23:18.984Z,77.55
2024-02-08T21:34:07.914Z,76.76
2024-02-08T21:51:55.999Z,77.95
2024-02-08T21:55:46.669Z,78.00
2024-02-08T22:02:11.378Z,78.16
2024-02-08T22:06:06.500Z,78.41
2024-02-08T22:09:57.551Z,77.33
2024-02-08T22:13:46.054Z,77.17
2024-02-08T22:24:26.619Z,77.53
2024-02-08T22:39:08.050Z,78.41
2024-02-08T22:43:02.135Z,78.78
2024-02-08T22:46:49.420Z,78.92
2024-02-08T22:50:48.980Z,78.96
2024-02-08T23:02:47.671Z,78.35
2024-02-08T23:07:02.909Z,78.43
